Terminal Aerodrome Forecast
Issued by NWS

Home | Current Version | Previous Version | Text Only | Print | Product List | Glossary On
Versions: 1 2 3 4 5 6 7 8 9 10 11 12 13 14 15
000
FTUS45 KLKN 200200 AAA
TAFELY
TAF AMD
KELY 200215Z 2002/2024 17009KT P6SM VCSH FEW060 BKN080 BKN100
     FM200430 17009KT P6SM SCT080
     FM202000 30007KT P6SM BKN080=

USA.gov is the U.S. government's official web portal to all federal, state and local government web resources and services.